sensor_id;sensor_type;location;lat;lon;timestamp;pressure;altitude;pressure_sealevel;temperature;humidity
46724;BME280;32463;48.298;11.620;2023-08-07T00:01:12;95934.25;;;11.79;100.00
46724;BME280;32463;48.298;11.620;2023-08-07T00:03:38;95927.13;;;11.73;100.00
46724;BME280;32463;48.298;11.620;2023-08-07T00:06:05;95941.53;;;11.75;100.00
46724;BME280;32463;48.298;11.620;2023-08-07T00:08:31;95937.66;;;11.71;100.00
46724;BME280;32463;48.298;11.620;2023-08-07T00:11:08;95941.88;;;11.72;100.00
46724;BME280;32463;48.298;11.620;2023-08-07T00:13:35;95952.59;;;11.55;100.00
46724;BME280;32463;48.298;11.620;2023-08-07T00:16:02;95948.72;;;11.51;100.00
46724;BME280;32463;48.298;11.620;2023-08-07T00:18:29;95948.94;;;11.41;100.00
46724;BME280;32463;48.298;11.620;2023-08-07T00:20:55;95959.53;;;11.31;100.00
46724;BME280;32463;48.298;11.620;2023-08-07T00:23:22;95950.03;;;11.24;100.00
46724;BME280;32463;48.298;11.620;2023-08-07T00:25:48;95959.31;;;11.18;100.00
46724;BME280;32463;48.298;11.620;2023-08-07T00:28:15;95951.34;;;10.97;100.00
46724;BME280;32463;48.298;11.620;2023-08-07T00:30:41;95950.09;;;10.85;100.00
46724;BME280;32463;48.298;11.620;2023-08-07T00:33:08;95948.44;;;10.92;100.00
46724;BME280;32463;48.298;11.620;2023-08-07T00:35:36;95955.63;;;10.73;100.00
46724;BME280;32463;48.298;11.620;2023-08-07T00:38:02;95955.06;;;10.63;100.00
46724;BME280;32463;48.298;11.620;2023-08-07T00:40:36;95961.88;;;10.56;100.00
46724;BME280;32463;48.298;11.620;2023-08-07T00:43:02;95957.34;;;10.58;100.00
46724;BME280;32463;48.298;11.620;2023-08-07T00:45:29;95957.03;;;10.45;100.00
46724;BME280;32463;48.298;11.620;2023-08-07T00:47:56;95947.69;;;10.36;100.00
46724;BME280;32463;48.298;11.620;2023-08-07T00:50:22;95956.56;;;10.41;100.00
46724;BME280;32463;48.298;11.620;2023-08-07T00:52:49;95955.47;;;10.28;100.00
46724;BME280;32463;48.298;11.620;2023-08-07T00:55:15;95967.78;;;10.18;100.00
46724;BME280;32463;48.298;11.620;2023-08-07T00:57:42;95961.63;;;10.19;100.00
46724;BME280;32463;48.298;11.620;2023-08-07T01:00:09;95967.94;;;10.16;100.00
46724;BME280;32463;48.298;11.620;2023-08-07T01:02:36;95960.66;;;10.11;100.00
46724;BME280;32463;48.298;11.620;2023-08-07T01:05:03;95971.00;;;10.11;100.00
46724;BME280;32463;48.298;11.620;2023-08-07T01:07:30;95966.50;;;10.05;100.00
46724;BME280;32463;48.298;11.620;2023-08-07T01:09:56;95955.66;;;10.02;100.00
46724;BME280;32463;48.298;11.620;2023-08-07T01:12:30;95953.88;;;10.02;100.00
46724;BME280;32463;48.298;11.620;2023-08-07T01:15:10;95950.66;;;10.08;100.00
46724;BME280;32463;48.298;11.620;2023-08-07T01:17:39;95958.09;;;10.03;100.00
46724;BME280;32463;48.298;11.620;2023-08-07T01:20:08;95951.63;;;9.99;100.00
46724;BME280;32463;48.298;11.620;2023-08-07T01:22:35;95949.69;;;9.93;100.00
46724;BME280;32463;48.298;11.620;2023-08-07T01:25:01;95963.94;;;9.97;100.00
46724;BME280;32463;48.298;11.620;2023-08-07T01:30:27;95962.63;;;9.93;100.00
46724;BME280;32463;48.298;11.620;2023-08-07T01:33:21;95967.16;;;9.91;100.00
46724;BME280;32463;48.298;11.620;2023-08-07T01:35:53;95958.09;;;9.87;100.00
46724;BME280;32463;48.298;11.620;2023-08-07T01:38:24;95976.72;;;9.91;100.00
46724;BME280;32463;48.298;11.620;2023-08-07T01:40:52;95965.22;;;9.93;100.00
46724;BME280;32463;48.298;11.620;2023-08-07T01:43:19;95963.59;;;9.92;100.00
46724;BME280;32463;48.298;11.620;2023-08-07T01:45:46;95973.31;;;9.90;100.00
46724;BME280;32463;48.298;11.620;2023-08-07T01:48:13;95968.13;;;9.90;100.00
46724;BME280;32463;48.298;11.620;2023-08-07T01:50:40;95977.84;;;9.96;100.00
46724;BME280;32463;48.298;11.620;2023-08-07T01:53:07;95964.91;;;9.88;100.00
46724;BME280;32463;48.298;11.620;2023-08-07T01:55:33;95967.81;;;9.93;100.00
46724;BME280;32463;48.298;11.620;2023-08-07T01:58:00;95975.56;;;9.85;100.00
46724;BME280;32463;48.298;11.620;2023-08-07T02:00:26;95974.59;;;9.86;100.00
46724;BME280;32463;48.298;11.620;2023-08-07T02:02:53;95971.69;;;9.89;100.00
46724;BME280;32463;48.298;11.620;2023-08-07T02:05:19;95970.41;;;9.85;100.00
46724;BME280;32463;48.298;11.620;2023-08-07T02:07:45;95986.25;;;9.82;100.00
46724;BME280;32463;48.298;11.620;2023-08-07T02:10:12;95987.22;;;9.89;100.00
46724;BME280;32463;48.298;11.620;2023-08-07T02:12:38;95980.59;;;9.78;100.00
46724;BME280;32463;48.298;11.620;2023-08-07T02:15:05;95986.28;;;9.74;100.00
46724;BME280;32463;48.298;11.620;2023-08-07T02:17:32;95986.25;;;9.82;100.00
46724;BME280;32463;48.298;11.620;2023-08-07T02:19:59;95997.28;;;9.76;100.00
46724;BME280;32463;48.298;11.620;2023-08-07T02:22:25;95986.56;;;9.79;100.00
46724;BME280;32463;48.298;11.620;2023-08-07T02:24:51;95991.28;;;9.75;100.00
46724;BME280;32463;48.298;11.620;2023-08-07T02:27:18;95995.47;;;9.85;100.00
46724;BME280;32463;48.298;11.620;2023-08-07T02:29:44;96013.78;;;9.75;100.00
46724;BME280;32463;48.298;11.620;2023-08-07T02:32:11;96006.97;;;9.66;100.00
46724;BME280;32463;48.298;11.620;2023-08-07T02:34:37;96006.97;;;9.74;100.00
46724;BME280;32463;48.298;11.620;2023-08-07T02:37:04;96009.72;;;9.64;100.00
46724;BME280;32463;48.298;11.620;2023-08-07T02:39:30;96008.56;;;9.59;100.00
46724;BME280;32463;48.298;11.620;2023-08-07T02:41:57;96024.75;;;9.61;100.00
46724;BME280;32463;48.298;11.620;2023-08-07T02:44:23;96002.75;;;9.65;100.00
46724;BME280;32463;48.298;11.620;2023-08-07T02:46:49;96018.13;;;9.66;100.00
46724;BME280;32463;48.298;11.620;2023-08-07T02:49:16;96021.19;;;9.62;100.00
46724;BME280;32463;48.298;11.620;2023-08-07T02:51:42;96023.13;;;9.60;100.00
46724;BME280;32463;48.298;11.620;2023-08-07T02:54:09;96017.00;;;9.69;100.00
46724;BME280;32463;48.298;11.620;2023-08-07T02:56:35;96010.84;;;9.62;100.00
46724;BME280;32463;48.298;11.620;2023-08-07T02:59:02;96024.28;;;9.65;100.00
46724;BME280;32463;48.298;11.620;2023-08-07T03:01:30;96021.19;;;9.62;100.00
46724;BME280;32463;48.298;11.620;2023-08-07T03:03:57;96028.97;;;9.70;100.00
46724;BME280;32463;48.298;11.620;2023-08-07T03:06:24;96027.84;;;9.80;100.00
46724;BME280;32463;48.298;11.620;2023-08-07T03:08:50;96035.78;;;9.71;100.00
46724;BME280;32463;48.298;11.620;2023-08-07T03:11:17;96027.84;;;9.72;100.00
46724;BME280;32463;48.298;11.620;2023-08-07T03:13:43;96028.97;;;9.70;100.00
46724;BME280;32463;48.298;11.620;2023-08-07T03:16:10;96029.00;;;9.78;100.00
46724;BME280;32463;48.298;11.620;2023-08-07T03:18:37;96025.09;;;9.74;100.00
46724;BME280;32463;48.298;11.620;2023-08-07T03:21:03;96033.84;;;9.73;100.00
46724;BME280;32463;48.298;11.620;2023-08-07T03:23:29;96031.72;;;9.85;100.00
46724;BME280;32463;48.298;11.620;2023-08-07T03:26:07;96015.53;;;9.83;100.00
46724;BME280;32463;48.298;11.620;2023-08-07T03:28:34;96023.47;;;9.81;100.00
46724;BME280;32463;48.298;11.620;2023-08-07T03:31:02;96024.44;;;9.80;100.00
46724;BME280;32463;48.298;11.620;2023-08-07T03:33:28;96029.59;;;9.80;100.00
46724;BME280;32463;48.298;11.620;2023-08-07T03:35:55;96029.28;;;9.83;100.00
46724;BME280;32463;48.298;11.620;2023-08-07T03:38:21;96030.09;;;9.84;100.00
46724;BME280;32463;48.298;11.620;2023-08-07T03:40:51;96028.16;;;9.86;100.00
46724;BME280;32463;48.298;11.620;2023-08-07T03:43:20;96032.22;;;9.88;100.00
46724;BME280;32463;48.298;11.620;2023-08-07T03:45:47;96035.78;;;9.95;100.00
46724;BME280;32463;48.298;11.620;2023-08-07T03:48:13;96036.75;;;9.94;100.00
46724;BME280;32463;48.298;11.620;2023-08-07T03:50:40;96040.31;;;9.93;100.00
46724;BME280;32463;48.298;11.620;2023-08-07T03:53:06;96044.22;;;10.05;100.00
46724;BME280;32463;48.298;11.620;2023-08-07T03:55:34;96036.75;;;9.94;100.00
46724;BME280;32463;48.298;11.620;2023-08-07T03:58:01;96040.66;;;10.06;100.00
46724;BME280;32463;48.298;11.620;2023-08-07T04:00:27;96046.78;;;10.05;100.00
46724;BME280;32463;48.298;11.620;2023-08-07T04:02:54;96056.66;;;10.10;100.00
46724;BME280;32463;48.298;11.620;2023-08-07T04:05:20;96059.06;;;10.11;100.00
46724;BME280;32463;48.298;11.620;2023-08-07T04:07:50;96060.03;;;10.10;100.00
46724;BME280;32463;48.298;11.620;2023-08-07T04:10:16;96059.06;;;10.11;100.00
46724;BME280;32463;48.298;11.620;2023-08-07T04:12:43;96067.81;;;10.19;100.00
46724;BME280;32463;48.298;11.620;2023-08-07T04:15:09;96035.47;;;10.23;100.00
46724;BME280;32463;48.298;11.620;2023-08-07T04:17:36;96075.31;;;10.22;100.00
46724;BME280;32463;48.298;11.620;2023-08-07T04:20:03;96064.63;;;10.25;100.00
46724;BME280;32463;48.298;11.620;2023-08-07T04:22:30;96071.53;;;10.16;100.00
46724;BME280;32463;48.298;11.620;2023-08-07T04:24:57;96074.66;;;10.28;100.00
46724;BME280;32463;48.298;11.620;2023-08-07T04:27:25;96069.81;;;10.25;100.00
46724;BME280;32463;48.298;11.620;2023-08-07T04:29:51;96072.22;;;10.26;100.00
46724;BME280;32463;48.298;11.620;2023-08-07T04:32:18;96071.91;;;10.29;100.00
46724;BME280;32463;48.298;11.620;2023-08-07T04:34:44;96050.69;;;10.34;100.00
46724;BME280;32463;48.298;11.620;2023-08-07T04:37:11;96068.84;;;10.34;100.00
46724;BME280;32463;48.298;11.620;2023-08-07T04:39:37;96076.13;;;10.38;100.00
46724;BME280;32463;48.298;11.620;2023-08-07T04:42:04;96068.19;;;10.32;100.00
46724;BME280;32463;48.298;11.620;2023-08-07T04:44:30;96084.69;;;10.31;100.00
46724;BME280;32463;48.298;11.620;2023-08-07T04:46:57;96084.88;;;10.37;100.00
46724;BME280;32463;48.298;11.620;2023-08-07T04:49:23;96082.91;;;10.39;100.00
46724;BME280;32463;48.298;11.620;2023-08-07T04:51:50;96098.63;;;10.38;100.00
46724;BME280;32463;48.298;11.620;2023-08-07T04:54:17;96084.66;;;10.47;100.00
46724;BME280;32463;48.298;11.620;2023-08-07T04:56:44;96079.66;;;10.45;100.00
46724;BME280;32463;48.298;11.620;2023-08-07T04:59:13;96093.75;;;10.51;100.00
46724;BME280;32463;48.298;11.620;2023-08-07T05:01:40;96087.91;;;10.49;100.00
46724;BME280;32463;48.298;11.620;2023-08-07T05:04:06;96094.38;;;10.53;100.00
46724;BME280;32463;48.298;11.620;2023-08-07T05:06:33;96094.06;;;10.56;100.00
46724;BME280;32463;48.298;11.620;2023-08-07T05:09:00;96096.00;;;10.54;100.00
46724;BME280;32463;48.298;11.620;2023-08-07T05:11:28;96107.03;;;10.56;100.00
46724;BME280;32463;48.298;11.620;2023-08-07T05:13:54;96099.88;;;10.66;100.00
46724;BME280;32463;48.298;11.620;2023-08-07T05:16:21;96101.19;;;10.54;100.00
46724;BME280;32463;48.298;11.620;2023-08-07T05:18:49;96089.19;;;10.61;100.00
46724;BME280;32463;48.298;11.620;2023-08-07T05:21:16;96104.44;;;10.64;100.00
46724;BME280;32463;48.298;11.620;2023-08-07T05:23:42;96114.16;;;10.62;100.00
46724;BME280;32463;48.298;11.620;2023-08-07T05:26:09;96113.78;;;10.73;100.00
46724;BME280;32463;48.298;11.620;2023-08-07T05:28:35;96120.59;;;10.83;100.00
46724;BME280;32463;48.298;11.620;2023-08-07T05:31:02;96119.78;;;10.74;100.00
46724;BME280;32463;48.298;11.620;2023-08-07T05:33:28;96116.91;;;10.69;100.00
46724;BME280;32463;48.298;11.620;2023-08-07T05:35:55;96122.88;;;10.77;100.00
46724;BME280;32463;48.298;11.620;2023-08-07T05:38:23;96125.16;;;10.64;100.00
46724;BME280;32463;48.298;11.620;2023-08-07T05:40:49;96125.13;;;10.72;100.00
46724;BME280;32463;48.298;11.620;2023-08-07T05:43:16;96126.91;;;10.80;100.00
46724;BME280;32463;48.298;11.620;2023-08-07T05:45:43;96133.88;;;10.71;100.00
46724;BME280;32463;48.298;11.620;2023-08-07T05:48:11;96135.34;;;10.82;100.00
46724;BME280;32463;48.298;11.620;2023-08-07T05:50:38;96141.81;;;10.86;100.00
46724;BME280;32463;48.298;11.620;2023-08-07T05:53:04;96133.88;;;10.88;100.00
46724;BME280;32463;48.298;11.620;2023-08-07T05:55:31;96139.88;;;10.88;100.00
46724;BME280;32463;48.298;11.620;2023-08-07T05:57:57;96133.38;;;11.00;100.00
46724;BME280;32463;48.298;11.620;2023-08-07T06:00:24;96131.28;;;10.96;100.00
46724;BME280;32463;48.298;11.620;2023-08-07T06:02:51;96130.63;;;10.94;100.00
46724;BME280;32463;48.298;11.620;2023-08-07T06:05:17;96140.03;;;10.95;100.00
46724;BME280;32463;48.298;11.620;2023-08-07T06:07:44;96129.97;;;11.00;100.00
46724;BME280;32463;48.298;11.620;2023-08-07T06:10:10;96146.16;;;11.02;100.00
46724;BME280;32463;48.298;11.620;2023-08-07T06:12:37;96145.16;;;11.11;100.00
46724;BME280;32463;48.298;11.620;2023-08-07T06:15:03;96148.41;;;11.13;100.00
46724;BME280;32463;48.298;11.620;2023-08-07T06:17:30;96150.03;;;11.14;100.00
46724;BME280;32463;48.298;11.620;2023-08-07T06:19:56;96150.03;;;11.14;100.00
46724;BME280;32463;48.298;11.620;2023-08-07T06:22:23;96157.16;;;11.12;100.00
46724;BME280;32463;48.298;11.620;2023-08-07T06:24:49;96150.34;;;11.19;100.00
46724;BME280;32463;48.298;11.620;2023-08-07T06:27:16;96154.81;;;11.33;100.00
46724;BME280;32463;48.298;11.620;2023-08-07T06:29:43;96158.75;;;11.29;100.00
46724;BME280;32463;48.298;11.620;2023-08-07T06:32:09;96146.06;;;11.34;100.00
46724;BME280;32463;48.298;11.620;2023-08-07T06:34:36;96159.50;;;11.38;100.00
46724;BME280;32463;48.298;11.620;2023-08-07T06:37:04;96152.19;;;11.41;100.00
46724;BME280;32463;48.298;11.620;2023-08-07T06:39:31;96155.72;;;11.57;100.00
46724;BME280;32463;48.298;11.620;2023-08-07T06:41:57;96163.53;;;11.48;100.00
46724;BME280;32463;48.298;11.620;2023-08-07T06:44:25;96159.97;;;11.50;100.00
46724;BME280;32463;48.298;11.620;2023-08-07T06:46:51;96167.84;;;11.64;100.00
46724;BME280;32463;48.298;11.620;2023-08-07T06:49:18;96162.44;;;11.74;100.00
46724;BME280;32463;48.298;11.620;2023-08-07T06:51:47;96157.59;;;11.71;100.00
46724;BME280;32463;48.298;11.620;2023-08-07T06:54:13;96171.56;;;11.70;100.00
46724;BME280;32463;48.298;11.620;2023-08-07T06:56:40;96162.78;;;11.71;100.00
46724;BME280;32463;48.298;11.620;2023-08-07T06:59:08;96155.31;;;11.76;100.00
46724;BME280;32463;48.298;11.620;2023-08-07T07:01:34;96169.09;;;11.85;100.00
46724;BME280;32463;48.298;11.620;2023-08-07T07:04:02;96176.38;;;11.89;100.00
46724;BME280;32463;48.298;11.620;2023-08-07T07:06:29;96166.19;;;12.10;100.00
46724;BME280;32463;48.298;11.620;2023-08-07T07:08:55;96175.81;;;12.25;100.00
46724;BME280;32463;48.298;11.620;2023-08-07T07:11:22;96182.66;;;12.48;100.00
46724;BME280;32463;48.298;11.620;2023-08-07T07:13:50;96175.44;;;12.36;100.00
46724;BME280;32463;48.298;11.620;2023-08-07T07:16:18;96184.78;;;12.45;100.00
46724;BME280;32463;48.298;11.620;2023-08-07T07:18:50;96198.72;;;12.52;100.00
46724;BME280;32463;48.298;11.620;2023-08-07T07:21:17;96194.03;;;12.85;100.00
46724;BME280;32463;48.298;11.620;2023-08-07T07:23:45;96186.53;;;12.90;100.00
46724;BME280;32463;48.298;11.620;2023-08-07T07:26:11;96195.50;;;12.88;100.00
46724;BME280;32463;48.298;11.620;2023-08-07T07:28:38;96197.75;;;12.91;100.00
46724;BME280;32463;48.298;11.620;2023-08-07T07:31:04;96199.78;;;13.18;100.00
46724;BME280;32463;48.298;11.620;2023-08-07T07:33:33;96195.34;;;13.41;100.00
46724;BME280;32463;48.298;11.620;2023-08-07T07:36:01;96202.97;;;13.28;100.00
46724;BME280;32463;48.298;11.620;2023-08-07T07:38:28;96198.94;;;13.40;100.00
46724;BME280;32463;48.298;11.620;2023-08-07T07:40:54;96217.59;;;13.59;100.00
46724;BME280;32463;48.298;11.620;2023-08-07T07:43:22;96211.13;;;13.55;100.00
46724;BME280;32463;48.298;11.620;2023-08-07T07:45:49;96209.88;;;13.51;100.00
46724;BME280;32463;48.298;11.620;2023-08-07T07:48:18;96212.47;;;13.51;100.00
46724;BME280;32463;48.298;11.620;2023-08-07T07:50:45;96223.78;;;13.87;100.00
46724;BME280;32463;48.298;11.620;2023-08-07T07:53:12;96223.06;;;13.78;100.00
46724;BME280;32463;48.298;11.620;2023-08-07T07:55:39;96221.19;;;13.87;100.00
46724;BME280;32463;48.298;11.620;2023-08-07T07:58:06;96222.78;;;14.03;100.00
46724;BME280;32463;48.298;11.620;2023-08-07T08:00:32;96228.44;;;14.42;100.00
46724;BME280;32463;48.298;11.620;2023-08-07T08:02:59;96226.81;;;14.56;100.00
46724;BME280;32463;48.298;11.620;2023-08-07T08:05:25;96230.91;;;14.65;100.00
46724;BME280;32463;48.298;11.620;2023-08-07T08:07:52;96227.72;;;14.70;99.06
46724;BME280;32463;48.298;11.620;2023-08-07T08:10:18;96226.28;;;14.89;100.00
46724;BME280;32463;48.298;11.620;2023-08-07T08:12:45;96235.19;;;14.94;98.09
46724;BME280;32463;48.298;11.620;2023-08-07T08:15:11;96223.50;;;14.90;97.35
46724;BME280;32463;48.298;11.620;2023-08-07T08:17:38;96234.09;;;15.10;100.00
46724;BME280;32463;48.298;11.620;2023-08-07T08:20:06;96228.72;;;14.90;96.91
46724;BME280;32463;48.298;11.620;2023-08-07T08:22:32;96239.69;;;15.07;95.44
46724;BME280;32463;48.298;11.620;2023-08-07T08:25:01;96234.34;;;15.43;92.59
46724;BME280;32463;48.298;11.620;2023-08-07T08:27:29;96233.16;;;15.45;92.73
46724;BME280;32463;48.298;11.620;2023-08-07T08:29:56;96232.59;;;15.22;89.79
46724;BME280;32463;48.298;11.620;2023-08-07T08:32:23;96241.41;;;15.21;90.60
46724;BME280;32463;48.298;11.620;2023-08-07T08:34:49;96247.78;;;15.12;90.61
46724;BME280;32463;48.298;11.620;2023-08-07T08:37:15;96261.56;;;15.06;88.32
46724;BME280;32463;48.298;11.620;2023-08-07T08:39:42;96251.56;;;15.09;89.07
46724;BME280;32463;48.298;11.620;2023-08-07T08:42:11;96250.38;;;15.12;91.23
46724;BME280;32463;48.298;11.620;2023-08-07T08:44:39;96255.34;;;15.07;94.96
46724;BME280;32463;48.298;11.620;2023-08-07T08:47:06;96268.97;;;15.52;94.58
46724;BME280;32463;48.298;11.620;2023-08-07T08:49:37;96254.63;;;15.69;90.52
46724;BME280;32463;48.298;11.620;2023-08-07T08:52:20;96268.78;;;15.25;87.29
46724;BME280;32463;48.298;11.620;2023-08-07T08:54:48;96267.09;;;15.18;88.50
46724;BME280;32463;48.298;11.620;2023-08-07T08:57:17;96275.00;;;15.03;88.38
46724;BME280;32463;48.298;11.620;2023-08-07T08:59:44;96281.47;;;15.07;92.25
46724;BME280;32463;48.298;11.620;2023-08-07T09:02:10;96290.19;;;14.93;89.21
46724;BME280;32463;48.298;11.620;2023-08-07T09:04:37;96274.91;;;14.90;89.50
46724;BME280;32463;48.298;11.620;2023-08-07T09:07:04;96279.75;;;14.93;89.51
46724;BME280;32463;48.298;11.620;2023-08-07T09:09:31;96289.84;;;15.02;89.38
46724;BME280;32463;48.298;11.620;2023-08-07T09:11:58;96295.44;;;14.99;88.34
46724;BME280;32463;48.298;11.620;2023-08-07T09:14:27;96289.16;;;14.72;87.09
46724;BME280;32463;48.298;11.620;2023-08-07T09:17:00;96291.91;;;15.07;85.94
46724;BME280;32463;48.298;11.620;2023-08-07T09:19:27;96276.06;;;15.36;83.93
46724;BME280;32463;48.298;11.620;2023-08-07T09:21:56;96264.41;;;15.88;82.35
46724;BME280;32463;48.298;11.620;2023-08-07T09:24:22;96278.47;;;15.87;83.01
46724;BME280;32463;48.298;11.620;2023-08-07T09:26:51;96275.00;;;16.14;81.45
46724;BME280;32463;48.298;11.620;2023-08-07T09:29:18;96268.97;;;16.27;82.87
46724;BME280;32463;48.298;11.620;2023-08-07T09:31:44;96280.44;;;16.20;83.81
46724;BME280;32463;48.298;11.620;2023-08-07T09:34:11;96277.13;;;16.04;84.89
46724;BME280;32463;48.298;11.620;2023-08-07T09:36:39;96270.97;;;16.19;82.53
46724;BME280;32463;48.298;11.620;2023-08-07T09:39:07;96274.59;;;16.24;80.22
46724;BME280;32463;48.298;11.620;2023-08-07T09:41:33;96281.88;;;16.29;80.80
46724;BME280;32463;48.298;11.620;2023-08-07T09:44:06;96285.19;;;16.57;78.59
46724;BME280;32463;48.298;11.620;2023-08-07T09:46:41;96283.78;;;16.07;80.41
46724;BME280;32463;48.298;11.620;2023-08-07T09:49:09;96281.44;;;16.25;78.91
46724;BME280;32463;48.298;11.620;2023-08-07T09:51:46;96284.22;;;16.10;80.51
46724;BME280;32463;48.298;11.620;2023-08-07T09:54:13;96274.19;;;16.21;78.77
46724;BME280;32463;48.298;11.620;2023-08-07T09:56:40;96286.69;;;16.19;80.61
46724;BME280;32463;48.298;11.620;2023-08-07T09:59:07;96281.25;;;16.27;78.02
46724;BME280;32463;48.298;11.620;2023-08-07T10:01:36;96283.88;;;16.20;76.83
46724;BME280;32463;48.298;11.620;2023-08-07T10:04:05;96279.16;;;16.50;77.48
46724;BME280;32463;48.298;11.620;2023-08-07T10:06:33;96288.88;;;16.69;78.41
46724;BME280;32463;48.298;11.620;2023-08-07T10:09:02;96282.50;;;16.98;77.37
46724;BME280;32463;48.298;11.620;2023-08-07T10:11:31;96294.78;;;16.98;76.56
46724;BME280;32463;48.298;11.620;2023-08-07T10:14:00;96287.75;;;17.11;71.39
46724;BME280;32463;48.298;11.620;2023-08-07T10:16:28;96275.66;;;17.10;70.22
46724;BME280;32463;48.298;11.620;2023-08-07T10:18:55;96283.53;;;17.37;66.41
46724;BME280;32463;48.298;11.620;2023-08-07T10:21:23;96275.25;;;17.60;64.95
46724;BME280;32463;48.298;11.620;2023-08-07T10:23:55;96277.66;;;17.81;67.08
46724;BME280;32463;48.298;11.620;2023-08-07T10:26:23;96278.84;;;17.85;61.32
46724;BME280;32463;48.298;11.620;2023-08-07T10:28:56;96279.66;;;17.92;62.46
46724;BME280;32463;48.298;11.620;2023-08-07T10:31:24;96276.53;;;18.22;62.53
46724;BME280;32463;48.298;11.620;2023-08-07T10:33:51;96276.84;;;17.87;63.43
46724;BME280;32463;48.298;11.620;2023-08-07T10:36:18;96280.31;;;17.28;63.83
46724;BME280;32463;48.298;11.620;2023-08-07T10:38:45;96286.97;;;17.11;65.68
46724;BME280;32463;48.298;11.620;2023-08-07T10:41:15;96282.53;;;17.31;65.70
46724;BME280;32463;48.298;11.620;2023-08-07T10:43:42;96279.47;;;17.80;64.63
46724;BME280;32463;48.298;11.620;2023-08-07T10:46:23;96271.56;;;18.00;66.03
46724;BME280;32463;48.298;11.620;2023-08-07T10:48:54;96268.34;;;17.98;63.72
46724;BME280;32463;48.298;11.620;2023-08-07T10:51:28;96268.16;;;17.93;62.28
46724;BME280;32463;48.298;11.620;2023-08-07T10:53:55;96265.34;;;17.88;61.87
46724;BME280;32463;48.298;11.620;2023-08-07T10:56:35;96253.22;;;18.45;60.58
46724;BME280;32463;48.298;11.620;2023-08-07T10:59:09;96261.25;;;18.50;60.17
46724;BME280;32463;48.298;11.620;2023-08-07T11:01:40;96259.41;;;18.12;60.23
46724;BME280;32463;48.298;11.620;2023-08-07T11:04:09;96250.28;;;18.66;60.50
46724;BME280;32463;48.298;11.620;2023-08-07T11:06:37;96248.13;;;18.95;57.61
46724;BME280;32463;48.298;11.620;2023-08-07T11:09:05;96243.88;;;19.18;56.68
46724;BME280;32463;48.298;11.620;2023-08-07T11:11:47;96253.78;;;18.92;57.56
46724;BME280;32463;48.298;11.620;2023-08-07T11:14:16;96249.13;;;19.43;58.00
46724;BME280;32463;48.298;11.620;2023-08-07T11:16:43;96254.88;;;20.50;56.16
46724;BME280;32463;48.298;11.620;2023-08-07T11:19:13;96265.38;;;19.59;55.10
46724;BME280;32463;48.298;11.620;2023-08-07T11:21:40;96256.69;;;18.77;58.25
46724;BME280;32463;48.298;11.620;2023-08-07T11:24:07;96274.78;;;18.02;60.87
46724;BME280;32463;48.298;11.620;2023-08-07T11:26:34;96277.69;;;17.41;62.39
46724;BME280;32463;48.298;11.620;2023-08-07T11:29:00;96262.16;;;17.07;65.54
46724;BME280;32463;48.298;11.620;2023-08-07T11:31:26;96273.22;;;16.89;64.77
46724;BME280;32463;48.298;11.620;2023-08-07T11:33:56;96282.78;;;16.62;65.22
46724;BME280;32463;48.298;11.620;2023-08-07T11:36:25;96286.53;;;17.14;63.56
46724;BME280;32463;48.298;11.620;2023-08-07T11:38:51;96288.16;;;17.28;64.10
46724;BME280;32463;48.298;11.620;2023-08-07T11:41:18;96288.94;;;17.55;63.20
46724;BME280;32463;48.298;11.620;2023-08-07T11:43:45;96293.78;;;17.91;60.61
46724;BME280;32463;48.298;11.620;2023-08-07T11:46:13;96292.19;;;18.41;59.48
46724;BME280;32463;48.298;11.620;2023-08-07T11:48:41;96287.81;;;18.73;58.15
46724;BME280;32463;48.298;11.620;2023-08-07T11:51:08;96289.88;;;19.28;57.47
46724;BME280;32463;48.298;11.620;2023-08-07T11:53:36;96292.06;;;20.05;54.91
46724;BME280;32463;48.298;11.620;2023-08-07T11:56:05;96285.63;;;20.01;53.88
46724;BME280;32463;48.298;11.620;2023-08-07T11:58:37;96282.66;;;19.73;53.60
46724;BME280;32463;48.298;11.620;2023-08-07T12:01:25;96293.34;;;19.96;53.69
46724;BME280;32463;48.298;11.620;2023-08-07T12:03:53;96292.84;;;19.13;54.69
46724;BME280;32463;48.298;11.620;2023-08-07T12:06:21;96282.66;;;18.60;55.26
46724;BME280;32463;48.298;11.620;2023-08-07T12:08:54;96292.06;;;18.30;58.59
46724;BME280;32463;48.298;11.620;2023-08-07T12:11:21;96299.38;;;18.08;56.59
46724;BME280;32463;48.298;11.620;2023-08-07T12:13:48;96305.50;;;17.82;56.74
46724;BME280;32463;48.298;11.620;2023-08-07T12:16:16;96297.81;;;17.74;58.14
46724;BME280;32463;48.298;11.620;2023-08-07T12:18:52;96304.22;;;18.04;57.72
46724;BME280;32463;48.298;11.620;2023-08-07T12:21:22;96309.13;;;17.81;57.75
46724;BME280;32463;48.298;11.620;2023-08-07T12:23:49;96309.09;;;18.01;58.25
46724;BME280;32463;48.298;11.620;2023-08-07T12:26:17;96315.56;;;17.32;60.27
46724;BME280;32463;48.298;11.620;2023-08-07T12:28:43;96315.16;;;18.01;59.80
46724;BME280;32463;48.298;11.620;2023-08-07T12:31:10;96314.00;;;17.71;60.98
46724;BME280;32463;48.298;11.620;2023-08-07T12:33:36;96308.66;;;18.10;57.54
46724;BME280;32463;48.298;11.620;2023-08-07T12:36:03;96319.19;;;17.84;57.25
46724;BME280;32463;48.298;11.620;2023-08-07T12:38:30;96316.72;;;18.09;58.60
46724;BME280;32463;48.298;11.620;2023-08-07T12:40:57;96324.63;;;18.02;56.60
46724;BME280;32463;48.298;11.620;2023-08-07T12:43:25;96322.81;;;17.43;59.65
46724;BME280;32463;48.298;11.620;2023-08-07T12:45:52;96324.66;;;17.63;59.56
46724;BME280;32463;48.298;11.620;2023-08-07T12:48:20;96321.22;;;17.56;60.91
46724;BME280;32463;48.298;11.620;2023-08-07T12:50:46;96315.78;;;17.57;60.60